Time;durP1;ratioP1;P1;durP2;ratioP2;P2;SDS_P1;SDS_P2;PMS_P1;PMS_P2;Temp;Humidity;BMP_temperature;BMP_pressure;BME280_temperature;BME280_humidity;BME280_pressure;Samples;Min_cycle;Max_cycle;Signal;HPM_P1;HPM_P2
2021/11/10 00:01:42;;;;;;;;;72.00;55.25;;;;;5.86;67.43;102171.91;4929060;28;45372;-96
2021/11/10 00:04:08;;;;;;;;;69.50;55.50;;;;;5.82;67.56;102174.22;4927669;28;47499;-95
2021/11/10 00:06:33;;;;;;;;;68.00;54.75;;;;;5.69;67.64;102156.63;4924597;28;45497;-94
2021/11/10 00:08:59;;;;;;;;;67.50;53.50;;;;;5.82;67.52;102189.88;4910147;28;45680;-93
2021/11/10 00:11:25;;;;;;;;;66.25;53.75;;;;;5.78;67.45;102182.56;4924839;28;45229;-95
2021/11/10 00:13:50;;;;;;;;;66.25;52.50;;;;;5.78;67.80;102185.19;4942594;28;47086;-95
2021/11/10 00:16:16;;;;;;;;;50.75;41.50;;;;;5.76;67.66;102157.16;4943297;28;52224;-96
2021/11/10 00:18:41;;;;;;;;;63.00;49.25;;;;;5.77;67.33;102162.47;4935417;28;45916;-96
2021/11/10 00:21:07;;;;;;;;;60.75;46.75;;;;;5.79;67.82;102163.56;4910175;28;45400;-96
2021/11/10 00:23:32;;;;;;;;;64.75;49.50;;;;;5.76;67.62;102158.06;4936137;28;59882;-96
2021/11/10 00:25:58;;;;;;;;;62.00;50.75;;;;;5.62;67.69;102136.00;4935047;28;46080;-95
2021/11/10 00:28:23;;;;;;;;;63.00;50.00;;;;;5.74;67.43;102161.31;4949530;28;44864;-96
2021/11/10 00:30:49;;;;;;;;;63.25;51.00;;;;;5.59;67.66;102131.44;4948922;28;45281;-95
2021/11/10 00:33:14;;;;;;;;;63.25;50.00;;;;;5.65;68.02;102138.88;4930127;28;48965;-96
2021/11/10 00:35:40;;;;;;;;;61.25;47.75;;;;;5.75;67.84;102155.31;4945838;28;45252;-95
2021/11/10 00:38:05;;;;;;;;;60.25;48.75;;;;;5.73;67.79;102143.84;4943399;28;45455;-93
2021/11/10 00:40:30;;;;;;;;;55.75;47.25;;;;;5.67;67.55;102126.00;4927315;28;52305;-94
2021/11/10 00:42:56;;;;;;;;;59.25;49.25;;;;;5.62;67.88;102133.38;4923815;28;57648;-94
2021/11/10 00:45:21;;;;;;;;;60.75;50.25;;;;;5.50;68.49;102120.22;4932571;28;46115;-94
2021/11/10 00:47:46;;;;;;;;;58.50;49.25;;;;;5.65;68.15;102145.78;4944437;28;47982;-95
2021/11/10 00:50:12;;;;;;;;;68.25;50.75;;;;;5.65;68.02;102149.31;4942644;28;61837;-94
2021/11/10 00:52:37;;;;;;;;;64.75;52.25;;;;;5.67;67.87;102145.13;4925982;28;71933;-94
2021/11/10 00:55:03;;;;;;;;;61.50;50.25;;;;;5.75;67.52;102158.84;4931016;28;61282;-94
2021/11/10 00:57:29;;;;;;;;;64.50;49.50;;;;;5.63;67.78;102132.63;4927854;28;45583;-94
2021/11/10 00:59:54;;;;;;;;;66.50;51.00;;;;;5.63;67.47;102131.72;4928242;28;56451;-94
2021/11/10 01:02:20;;;;;;;;;58.75;49.75;;;;;5.69;67.56;102147.91;4953636;28;48335;-96
2021/11/10 01:04:45;;;;;;;;;67.50;51.75;;;;;5.54;67.82;102132.72;4949898;28;45395;-94
2021/11/10 01:07:11;;;;;;;;;63.25;51.25;;;;;5.57;67.94;102129.47;4940993;28;45562;-94
2021/11/10 01:09:44;;;;;;;;;62.50;48.50;;;;;5.54;67.35;102124.00;4929916;28;50558;-95
2021/11/10 01:12:10;;;;;;;;;61.00;48.75;;;;;5.46;67.45;102113.81;4928790;28;48388;-94
2021/11/10 01:14:36;;;;;;;;;61.50;49.00;;;;;5.45;67.61;102104.19;4926903;28;45437;-93
2021/11/10 01:17:01;;;;;;;;;67.75;53.00;;;;;5.47;67.54;102110.44;4907440;28;45427;-94
2021/11/10 01:19:27;;;;;;;;;66.25;53.25;;;;;5.33;67.63;102084.88;4923828;28;45293;-93
2021/11/10 01:21:52;;;;;;;;;63.00;50.50;;;;;5.34;68.46;102082.38;4958996;28;48257;-94
2021/11/10 01:24:18;;;;;;;;;67.00;54.00;;;;;5.40;68.26;102081.09;4955406;28;59332;-94
2021/11/10 01:26:44;;;;;;;;;73.50;58.50;;;;;5.44;68.06;102104.03;4931409;28;45332;-94
2021/11/10 01:29:10;;;;;;;;;73.25;56.75;;;;;5.33;67.67;102092.69;4926912;28;45530;-94
2021/11/10 01:31:35;;;;;;;;;67.75;55.25;;;;;5.40;67.82;102102.84;4938824;28;47292;-94
2021/11/10 01:34:07;;;;;;;;;70.50;53.50;;;;;5.35;67.58;102092.03;4908703;28;45643;-94
2021/11/10 01:36:33;;;;;;;;;69.75;57.00;;;;;5.28;67.80;102093.97;4941646;28;45263;-94
2021/11/10 01:38:59;;;;;;;;;66.50;54.75;;;;;5.25;67.98;102100.72;4959702;28;45303;-95
2021/11/10 01:41:24;;;;;;;;;74.00;57.50;;;;;5.34;67.64;102103.22;4928088;28;54664;-94
2021/11/10 01:43:50;;;;;;;;;77.50;61.75;;;;;5.32;67.59;102096.06;4945130;28;45250;-94
2021/11/10 01:46:15;;;;;;;;;79.75;61.50;;;;;5.25;67.53;102090.31;4915082;28;45312;-95
2021/11/10 01:48:41;;;;;;;;;78.00;60.25;;;;;5.14;67.68;102088.44;4942666;28;55031;-94
2021/11/10 01:51:06;;;;;;;;;78.50;61.00;;;;;5.19;67.51;102109.66;4911353;28;48519;-94
2021/11/10 01:53:32;;;;;;;;;75.50;59.00;;;;;5.16;67.64;102107.69;4942957;28;45205;-94
2021/11/10 01:55:58;;;;;;;;;64.00;50.50;;;;;5.07;68.61;102086.06;4940724;28;45221;-94
2021/11/10 01:58:24;;;;;;;;;67.75;55.00;;;;;5.18;68.14;102093.13;4950567;28;45439;-95
2021/11/10 02:00:51;;;;;;;;;72.00;56.50;;;;;5.07;67.92;102088.66;4953711;28;47043;-94
2021/11/10 02:03:16;;;;;;;;;73.25;57.00;;;;;5.12;68.29;102108.22;4939440;28;62580;-94
2021/11/10 02:05:42;;;;;;;;;64.75;52.00;;;;;5.03;68.36;102090.97;4928157;28;45443;-95
2021/11/10 02:08:07;;;;;;;;;67.00;55.75;;;;;4.98;68.03;102086.13;4927802;28;45445;-94
2021/11/10 02:10:33;;;;;;;;;65.75;53.00;;;;;4.99;68.23;102096.69;4912117;28;47205;-94
2021/11/10 02:12:58;;;;;;;;;65.50;53.00;;;;;4.95;68.27;102094.56;4911525;28;45388;-94
2021/11/10 02:15:24;;;;;;;;;65.25;53.25;;;;;4.91;68.56;102084.69;4934884;28;45489;-94
2021/11/10 02:17:51;;;;;;;;;67.50;51.00;;;;;4.92;68.56;102097.81;4918747;28;45856;-94
2021/11/10 02:20:16;;;;;;;;;58.75;50.00;;;;;4.93;68.86;102101.34;4934594;28;47117;-95
2021/11/10 02:22:42;;;;;;;;;60.75;46.00;;;;;4.98;68.64;102100.06;4914922;28;51500;-94
2021/11/10 02:25:08;;;;;;;;;59.75;49.75;;;;;5.03;68.29;102109.19;4910635;28;45510;-95
2021/11/10 02:27:35;;;;;;;;;57.50;47.25;;;;;5.00;68.68;102087.22;4918530;28;45599;-94
2021/11/10 02:30:01;;;;;;;;;59.50;48.00;;;;;4.94;68.88;102079.75;4941293;28;47329;-94
2021/11/10 02:32:27;;;;;;;;;59.50;47.00;;;;;4.98;68.40;102079.25;4940525;28;45270;-93
2021/11/10 02:34:52;;;;;;;;;62.75;47.25;;;;;5.00;68.79;102082.00;4926813;28;45303;-94
2021/11/10 02:37:19;;;;;;;;;54.50;45.00;;;;;4.92;68.07;102063.09;4921187;28;61602;-94
2021/11/10 02:39:44;;;;;;;;;57.75;47.00;;;;;4.91;68.25;102072.59;4920209;28;47172;-94
2021/11/10 02:42:10;;;;;;;;;60.00;47.00;;;;;4.85;68.09;102050.28;4942680;28;45898;-95
2021/11/10 02:44:35;;;;;;;;;61.50;49.50;;;;;4.92;68.19;102071.78;4928683;28;45451;-94
2021/11/10 02:47:01;;;;;;;;;64.50;52.75;;;;;4.78;68.52;102051.44;4946135;28;45499;-95
2021/11/10 02:49:26;;;;;;;;;57.75;46.25;;;;;4.82;68.41;102050.91;4945526;28;47228;-95
2021/11/10 02:52:00;;;;;;;;;56.00;46.50;;;;;4.89;68.53;102055.94;4951301;28;60388;-94
2021/11/10 02:54:26;;;;;;;;;66.50;53.50;;;;;4.82;68.21;102066.53;4952093;28;45565;-94
2021/11/10 02:56:55;;;;;;;;;57.00;47.25;;;;;4.89;68.10;102081.03;4949696;28;45335;-95
2021/11/10 02:59:21;;;;;;;;;65.75;50.00;;;;;4.71;67.91;102062.06;4944145;28;48202;-95
2021/11/10 03:01:47;;;;;;;;;57.25;45.50;;;;;4.73;68.40;102064.03;4945396;28;45452;-94
2021/11/10 03:04:23;;;;;;;;;59.50;48.50;;;;;4.69;68.45;102055.03;4925551;28;45609;-94
2021/11/10 03:06:49;;;;;;;;;57.00;46.00;;;;;4.66;68.66;102052.16;4919781;28;45313;-94
2021/11/10 03:09:18;;;;;;;;;65.00;47.00;;;;;4.57;68.37;102039.22;4926142;28;47197;-94
2021/11/10 03:11:43;;;;;;;;;60.00;47.00;;;;;4.61;68.47;102030.03;4976714;28;45531;-94
2021/11/10 03:14:09;;;;;;;;;60.25;49.75;;;;;4.63;68.36;102038.88;4922102;28;45733;-94
2021/11/10 03:16:34;;;;;;;;;64.00;49.25;;;;;4.62;68.19;102043.91;4941375;28;45577;-94
2021/11/10 03:19:00;;;;;;;;;48.00;42.75;;;;;4.57;68.79;102031.44;4923936;28;48212;-95
2021/11/10 03:21:25;;;;;;;;;60.25;46.25;;;;;4.55;68.52;102019.97;4934000;28;45830;-94
2021/11/10 03:23:51;;;;;;;;;59.50;50.25;;;;;4.55;68.29;102030.38;4911450;28;53117;-94
2021/11/10 03:26:19;;;;;;;;;60.00;43.75;;;;;4.48;68.27;102022.81;4929087;28;45538;-95
2021/11/10 03:28:44;;;;;;;;;63.25;47.75;;;;;4.45;67.93;102032.91;4936327;28;47190;-94
2021/11/10 03:31:10;;;;;;;;;54.75;44.50;;;;;4.51;68.10;102043.84;4953109;28;45320;-95
2021/11/10 03:33:35;;;;;;;;;60.75;47.00;;;;;4.35;68.21;102025.97;4960483;28;45516;-94
2021/11/10 03:36:01;;;;;;;;;60.75;46.75;;;;;4.46;68.46;102048.66;4927282;28;45344;-94
2021/11/10 03:38:26;;;;;;;;;59.00;45.50;;;;;4.41;68.32;102029.09;4940893;28;47073;-94
2021/11/10 03:40:52;;;;;;;;;65.00;53.00;;;;;4.40;68.48;102032.50;4961611;28;45432;-93
2021/11/10 03:43:17;;;;;;;;;57.75;45.00;;;;;4.34;68.02;102040.63;4933172;28;45820;-95
2021/11/10 03:45:44;;;;;;;;;56.25;46.25;;;;;4.36;68.57;102051.16;4941811;28;51954;-94
2021/11/10 03:48:10;;;;;;;;;63.50;50.00;;;;;4.38;68.30;102056.53;4955050;28;47181;-94
2021/11/10 03:50:36;;;;;;;;;56.00;47.00;;;;;4.33;69.07;102038.81;4926757;28;46039;-95
2021/11/10 03:53:01;;;;;;;;;53.75;46.25;;;;;4.26;68.66;102018.22;4928280;28;45451;-95
2021/11/10 03:55:35;;;;;;;;;56.75;49.00;;;;;4.40;68.79;102045.50;4927614;28;53895;-94
2021/11/10 03:58:00;;;;;;;;;54.25;46.00;;;;;4.42;68.64;102063.81;4925916;28;46729;-94
2021/11/10 04:00:25;;;;;;;;;51.00;44.25;;;;;4.38;68.61;102060.03;4914209;28;51740;-95
2021/11/10 04:02:51;;;;;;;;;57.75;44.75;;;;;4.29;68.53;102051.38;4931936;28;45378;-95
2021/11/10 04:07:59;;;;;;;;;58.00;46.25;;;;;4.24;68.75;102071.75;5001745;23;45393;-96
2021/11/10 04:10:25;;;;;;;;;57.00;47.00;;;;;4.19;68.85;102070.41;4945671;28;45220;-95
2021/11/10 04:15:34;;;;;;;;;59.00;46.25;;;;;4.18;68.92;102107.56;4927582;28;45522;-94
2021/11/10 04:18:00;;;;;;;;;56.50;43.50;;;;;4.27;68.85;102124.03;4906850;28;46960;-94
2021/11/10 04:20:25;;;;;;;;;55.50;42.75;;;;;4.23;69.10;102114.09;4899139;28;58559;-95
2021/11/10 04:22:51;;;;;;;;;62.50;47.25;;;;;4.28;68.86;102118.06;4928615;28;45299;-93
2021/11/10 04:25:16;;;;;;;;;57.00;47.50;;;;;4.19;68.78;102104.22;4923726;28;50460;-94
2021/11/10 04:27:41;;;;;;;;;56.25;43.50;;;;;4.29;68.88;102114.69;4927420;28;47314;-95
2021/11/10 04:30:07;;;;;;;;;57.50;46.50;;;;;4.35;68.82;102130.88;4913095;28;44929;-94
2021/11/10 04:32:33;;;;;;;;;52.50;45.50;;;;;4.30;68.60;102113.94;5096508;23;45114;-93
2021/11/10 04:34:58;;;;;;;;;54.75;45.75;;;;;4.16;68.91;102089.25;4908222;28;60061;-96
2021/11/10 04:37:24;;;;;;;;;60.00;47.75;;;;;4.28;68.78;102107.66;4892377;28;60894;-95
2021/11/10 04:39:50;;;;;;;;;60.50;49.00;;;;;4.21;68.86;102097.47;5109916;23;52576;-92
2021/11/10 04:42:16;;;;;;;;;56.50;47.25;;;;;4.28;69.10;102112.84;4929885;28;63006;-93
2021/11/10 04:44:41;;;;;;;;;60.50;46.50;;;;;4.27;69.04;102097.13;4990663;23;45900;-96
2021/11/10 04:47:06;;;;;;;;;62.25;50.00;;;;;4.18;69.64;102077.28;4922938;28;47627;-93
2021/11/10 04:49:32;;;;;;;;;63.75;51.50;;;;;4.29;70.05;102092.97;4925116;28;57820;-93
2021/11/10 04:51:58;;;;;;;;;62.25;49.25;;;;;4.22;69.21;102083.72;4927503;28;45246;-93
2021/11/10 04:54:29;;;;;;;;;63.00;49.25;;;;;4.28;69.56;102092.06;4959006;22;45227;-95
2021/11/10 04:56:55;;;;;;;;;62.75;48.00;;;;;4.24;69.47;102088.28;4896164;28;48289;-96
2021/11/10 04:59:21;;;;;;;;;58.50;48.50;;;;;4.24;68.71;102089.97;4925884;28;45513;-93
2021/11/10 05:04:33;;;;;;;;;57.25;46.75;;;;;4.30;68.62;102110.41;4932304;28;45548;-92
2021/11/10 05:06:59;;;;;;;;;59.75;47.00;;;;;4.19;68.85;102102.53;4922170;28;45461;-93
2021/11/10 05:09:24;;;;;;;;;62.75;50.25;;;;;4.23;69.03;102101.09;4904387;28;45834;-93
2021/11/10 05:11:50;;;;;;;;;58.00;46.00;;;;;4.14;68.52;102085.59;4904376;28;52547;-93
2021/11/10 05:14:15;;;;;;;;;63.25;50.00;;;;;4.02;68.92;102075.84;4904252;28;60320;-93
2021/11/10 05:16:40;;;;;;;;;63.00;51.25;;;;;4.05;69.56;102080.44;4907476;28;46981;-95
2021/11/10 05:19:06;;;;;;;;;54.25;47.25;;;;;4.01;69.21;102066.25;4889885;28;46582;-94
2021/11/10 05:21:31;;;;;;;;;66.00;49.75;;;;;4.05;69.81;102069.13;4899008;28;45265;-94
2021/11/10 05:23:57;;;;;;;;;66.50;50.75;;;;;4.01;69.73;102070.53;4892118;28;54337;-94
2021/11/10 05:26:22;;;;;;;;;59.75;50.50;;;;;3.90;69.78;102053.94;4908527;28;48347;-94
2021/11/10 05:28:48;;;;;;;;;63.50;48.00;;;;;3.91;69.73;102055.78;4908244;28;45205;-95
2021/11/10 05:31:14;;;;;;;;;58.75;46.00;;;;;3.86;70.07;102049.22;4897138;28;45510;-94
2021/11/10 05:33:40;;;;;;;;;61.50;48.00;;;;;3.92;70.31;102073.16;4896800;28;45380;-94
2021/11/10 05:36:05;;;;;;;;;35.25;30.00;;;;;3.93;70.14;102071.50;4911253;28;47142;-95
2021/11/10 05:38:31;;;;;;;;;62.00;51.50;;;;;4.02;70.13;102077.56;4919875;28;46844;-94
2021/11/10 05:40:56;;;;;;;;;60.25;50.50;;;;;3.96;70.02;102059.72;4914987;28;45433;-94
2021/11/10 05:43:21;;;;;;;;;59.00;51.00;;;;;3.99;70.01;102057.41;4919208;28;52984;-94
2021/11/10 05:45:47;;;;;;;;;58.75;47.50;;;;;3.95;69.87;102049.16;4909677;28;46289;-94
2021/11/10 05:48:12;;;;;;;;;69.00;50.50;;;;;3.88;69.77;102039.88;4882612;28;45366;-94
2021/11/10 05:50:40;;;;;;;;;59.50;47.25;;;;;4.08;69.89;102059.00;4913921;28;45345;-94
2021/11/10 05:53:07;;;;;;;;;60.75;50.75;;;;;3.98;70.11;102047.78;4929728;28;45418;-94
2021/11/10 05:55:33;;;;;;;;;60.25;46.00;;;;;4.05;69.85;102050.94;4901383;28;47137;-94
2021/11/10 05:57:58;;;;;;;;;63.00;48.00;;;;;4.04;69.76;102042.25;4903226;28;45510;-95
2021/11/10 06:00:24;;;;;;;;;60.50;49.00;;;;;3.96;70.08;102035.41;4904870;28;45331;-94
2021/11/10 06:02:49;;;;;;;;;68.00;52.25;;;;;3.94;70.02;102032.69;4872572;28;45258;-94
2021/11/10 06:05:15;;;;;;;;;66.00;52.50;;;;;3.92;69.98;102047.19;4873279;28;47501;-94
2021/11/10 06:07:41;;;;;;;;;67.75;51.75;;;;;3.99;70.31;102060.00;4871594;28;45431;-94
2021/11/10 06:10:07;;;;;;;;;67.25;50.50;;;;;3.99;70.12;102053.88;4905543;28;45422;-94
2021/11/10 06:12:32;;;;;;;;;61.00;50.00;;;;;3.86;70.26;102031.97;4872816;28;45326;-94
2021/11/10 06:14:57;;;;;;;;;59.00;47.75;;;;;3.90;69.93;102057.44;4895334;28;60458;-94
2021/11/10 06:17:23;;;;;;;;;63.75;51.50;;;;;3.91;70.04;102068.75;4897158;28;56393;-95
2021/11/10 06:19:48;;;;;;;;;64.75;49.75;;;;;3.91;69.99;102081.75;4886618;28;57911;-95
2021/11/10 06:22:13;;;;;;;;;65.00;51.50;;;;;3.82;69.88;102074.00;4882397;28;45371;-94
2021/11/10 06:24:39;;;;;;;;;61.25;49.00;;;;;3.93;69.99;102097.47;4889864;28;46984;-94
2021/11/10 06:27:05;;;;;;;;;62.75;51.00;;;;;3.84;70.24;102085.44;4924999;28;54657;-96
2021/11/10 06:29:30;;;;;;;;;59.75;49.50;;;;;3.84;69.73;102092.34;4875537;28;45418;-94
2021/11/10 06:31:55;;;;;;;;;62.75;50.00;;;;;3.88;69.70;102108.34;4872556;28;45698;-95
2021/11/10 06:34:21;;;;;;;;;58.75;47.50;;;;;4.02;69.71;102132.13;4873564;28;53410;-95
2021/11/10 06:36:46;;;;;;;;;65.00;47.25;;;;;3.91;69.49;102120.72;4900962;29;59128;-95
2021/11/10 06:39:12;;;;;;;;;60.50;47.50;;;;;3.93;70.12;102124.38;4874815;28;49606;-96
2021/11/10 06:41:37;;;;;;;;;60.50;49.00;;;;;3.92;69.43;102127.72;4872486;28;46063;-95
2021/11/10 06:44:03;;;;;;;;;57.00;47.25;;;;;3.85;69.24;102115.84;4872364;28;48223;-95
2021/11/10 06:46:28;;;;;;;;;59.00;47.50;;;;;3.99;68.52;102143.16;4869251;29;45562;-95
2021/11/10 06:48:54;;;;;;;;;60.75;47.25;;;;;3.80;69.66;102111.91;4885787;28;45603;-96
2021/11/10 06:51:20;;;;;;;;;55.25;44.50;;;;;3.87;70.04;102124.69;4904920;28;45381;-95
2021/11/10 06:53:45;;;;;;;;;58.50;46.75;;;;;3.94;69.10;102138.28;4893038;28;47037;-95
2021/11/10 06:56:11;;;;;;;;;62.25;48.00;;;;;3.91;68.08;102165.81;4907952;28;45485;-95
2021/11/10 06:58:36;;;;;;;;;60.75;48.50;;;;;3.98;68.36;102192.34;4911267;28;45422;-95
2021/11/10 07:01:02;;;;;;;;;50.25;45.25;;;;;3.88;67.99;102186.28;4910143;28;45474;-94
2021/11/10 07:03:28;;;;;;;;;61.50;50.00;;;;;3.83;68.86;102179.75;4917824;28;46963;-95
2021/11/10 07:05:53;;;;;;;;;59.00;48.25;;;;;3.79;68.97;102170.72;4923103;28;45974;-95
2021/11/10 07:08:19;;;;;;;;;62.25;50.50;;;;;3.77;68.96;102171.34;4903221;28;50347;-96
2021/11/10 07:10:44;;;;;;;;;54.50;45.75;;;;;3.86;68.97;102182.63;4916826;28;45433;-95
2021/11/10 07:13:10;;;;;;;;;53.00;45.00;;;;;3.86;68.37;102189.50;4914005;28;48189;-95
2021/11/10 07:15:35;;;;;;;;;54.00;45.25;;;;;3.91;68.18;102198.66;4902788;28;61221;-94
2021/11/10 07:18:00;;;;;;;;;56.75;47.00;;;;;3.86;68.46;102182.63;4903726;28;45773;-94
2021/11/10 07:20:26;;;;;;;;;57.00;46.25;;;;;3.83;68.45;102177.13;4886791;28;45287;-95
2021/11/10 07:22:53;;;;;;;;;55.00;47.75;;;;;3.78;68.91;102168.91;4896207;28;46629;-95
2021/11/10 07:25:18;;;;;;;;;60.50;47.00;;;;;3.95;68.96;102199.84;4909852;28;45604;-85
2021/11/10 07:27:44;;;;;;;;;60.25;48.75;;;;;3.90;68.73;102173.44;4924764;28;58769;-85
2021/11/10 07:30:10;;;;;;;;;58.50;47.75;;;;;3.92;68.84;102169.28;4936470;28;45515;-85
2021/11/10 07:32:36;;;;;;;;;61.75;50.50;;;;;3.98;69.39;102192.34;4925795;28;46316;-85
2021/11/10 07:35:05;;;;;;;;;59.50;47.75;;;;;3.98;68.76;102187.16;4941605;28;45398;-85
2021/11/10 07:37:31;;;;;;;;;60.25;47.00;;;;;3.96;68.87;102187.03;4922382;28;45879;-85
2021/11/10 07:39:57;;;;;;;;;60.25;50.00;;;;;3.96;69.05;102192.22;4883394;28;45680;-85
2021/11/10 07:42:22;;;;;;;;;62.25;46.75;;;;;3.93;69.08;102178.00;4914040;28;67908;-85
2021/11/10 07:44:51;;;;;;;;;60.25;50.25;;;;;3.97;69.16;102181.03;4923125;28;45342;-86
2021/11/10 07:47:19;;;;;;;;;61.25;50.00;;;;;3.98;69.27;102172.50;4921839;28;45519;-85
2021/11/10 07:49:44;;;;;;;;;66.50;51.75;;;;;4.00;69.59;102170.03;4937133;28;45389;-85
2021/11/10 07:52:10;;;;;;;;;65.75;51.50;;;;;4.02;69.26;102171.13;4945102;28;45471;-85
2021/11/10 07:54:36;;;;;;;;;68.50;54.00;;;;;4.04;69.56;102169.56;4917023;28;45402;-85
2021/11/10 07:57:01;;;;;;;;;66.50;51.00;;;;;4.09;70.00;102154.41;4910206;28;45387;-85
2021/11/10 07:59:27;;;;;;;;;70.75;55.50;;;;;4.21;70.44;102157.25;4945281;28;45627;-85
2021/11/10 08:01:52;;;;;;;;;66.00;52.00;;;;;4.27;70.26;102155.25;4928646;28;45505;-85
2021/11/10 08:04:17;;;;;;;;;71.50;55.00;;;;;4.36;70.40;102162.97;4928998;28;65764;-86
2021/11/10 08:06:43;;;;;;;;;69.00;53.75;;;;;4.38;70.10;102145.81;4930940;28;45509;-86
2021/11/10 08:09:08;;;;;;;;;66.00;53.50;;;;;4.50;70.60;102153.88;4930939;28;56178;-86
2021/11/10 08:11:33;;;;;;;;;67.75;55.25;;;;;4.53;70.28;102161.03;4923876;28;74358;-86
2021/11/10 08:13:59;;;;;;;;;70.00;57.00;;;;;4.61;70.36;102164.34;4921952;28;46055;-85
2021/11/10 08:16:25;;;;;;;;;66.25;54.50;;;;;4.64;70.47;102162.94;4950540;28;45362;-85
2021/11/10 08:18:50;;;;;;;;;70.75;54.75;;;;;4.72;70.33;102163.66;4935334;28;45541;-85
2021/11/10 08:21:17;;;;;;;;;68.00;55.00;;;;;4.77;70.55;102178.00;4923431;28;75797;-85
2021/11/10 08:23:42;;;;;;;;;70.75;57.25;;;;;4.85;70.25;102188.19;4915678;28;45487;-84
2021/11/10 08:26:07;;;;;;;;;68.25;53.25;;;;;4.87;70.33;102178.88;4913579;28;46608;-84
2021/11/10 08:28:33;;;;;;;;;64.25;53.50;;;;;4.93;70.44;102176.81;4931001;28;45443;-84
2021/11/10 08:30:58;;;;;;;;;66.00;52.50;;;;;5.00;70.69;102188.72;4914309;28;46287;-84
2021/11/10 08:33:24;;;;;;;;;66.75;53.50;;;;;5.05;70.57;102200.44;4933210;28;45517;-84
2021/11/10 08:35:49;;;;;;;;;69.00;55.25;;;;;5.17;70.57;102205.84;4941329;28;66663;-84
2021/11/10 08:38:15;;;;;;;;;66.50;54.25;;;;;5.29;70.15;102199.91;4932404;28;45606;-84
2021/11/10 08:40:41;;;;;;;;;66.50;52.75;;;;;5.36;70.45;102205.81;4933336;28;48457;-85
2021/11/10 08:43:12;;;;;;;;;70.75;55.00;;;;;5.39;70.19;102202.59;4932197;28;49909;-84
2021/11/10 08:45:38;;;;;;;;;65.00;52.00;;;;;5.44;69.97;102195.19;4906587;28;45405;-83
2021/11/10 08:48:05;;;;;;;;;68.00;54.50;;;;;5.48;70.22;102192.09;4911618;28;45584;-84
2021/11/10 08:50:30;;;;;;;;;74.75;55.25;;;;;5.56;70.25;102191.09;4931593;28;46097;-84
2021/11/10 08:52:56;;;;;;;;;66.50;52.25;;;;;5.66;70.40;102202.31;4928081;28;47984;-84
2021/11/10 08:55:21;;;;;;;;;72.75;56.00;;;;;5.75;70.14;102192.72;4921802;28;45454;-84
2021/11/10 08:57:47;;;;;;;;;73.75;55.50;;;;;5.92;70.05;102198.50;4928012;28;47764;-84
2021/11/10 09:00:17;;;;;;;;;76.25;57.50;;;;;6.02;69.83;102187.19;4912387;28;45553;-84
2021/11/10 09:02:43;;;;;;;;;71.75;55.50;;;;;6.16;69.60;102201.44;4940629;28;45625;-84
2021/11/10 09:05:09;;;;;;;;;71.25;54.75;;;;;6.16;69.54;102188.41;4931416;28;45615;-84
2021/11/10 09:07:35;;;;;;;;;70.50;54.25;;;;;6.21;69.13;102197.56;4932531;28;45421;-84
2021/11/10 09:10:00;;;;;;;;;70.50;57.25;;;;;6.23;69.35;102203.84;4924905;28;45461;-84
2021/11/10 09:12:26;;;;;;;;;72.00;55.75;;;;;6.25;69.41;102197.06;4927682;28;49467;-84
2021/11/10 09:14:51;;;;;;;;;72.75;56.00;;;;;6.28;69.57;102195.50;4931280;28;45568;-84
2021/11/10 09:17:17;;;;;;;;;68.25;55.75;;;;;6.34;69.58;102202.13;4931475;28;59900;-84
2021/11/10 09:19:42;;;;;;;;;73.00;56.50;;;;;6.37;69.35;102194.59;4930623;28;71109;-84
2021/11/10 09:22:08;;;;;;;;;72.75;57.00;;;;;6.39;69.59;102189.50;4915685;28;70467;-83
2021/11/10 09:24:34;;;;;;;;;68.50;55.25;;;;;6.47;69.45;102174.50;4924604;28;45553;-84
2021/11/10 09:27:00;;;;;;;;;75.00;59.75;;;;;6.51;69.50;102166.16;4932191;28;45552;-84
2021/11/10 09:29:25;;;;;;;;;74.25;58.75;;;;;6.59;69.76;102154.69;4929839;28;46964;-84
2021/11/10 09:31:50;;;;;;;;;78.25;59.25;;;;;6.64;69.20;102157.69;4929779;28;66601;-84
2021/11/10 09:34:16;;;;;;;;;73.75;57.75;;;;;6.68;69.76;102151.94;4889165;28;50728;-84
2021/11/10 09:36:47;;;;;;;;;74.00;55.25;;;;;6.75;68.62;102150.72;4913758;28;45542;-84
2021/11/10 09:39:14;;;;;;;;;73.75;58.00;;;;;6.81;69.03;102160.78;4933457;28;45594;-84
2021/11/10 09:41:40;;;;;;;;;72.75;57.00;;;;;6.82;68.49;102153.09;4918364;28;45460;-84
2021/11/10 09:44:06;;;;;;;;;68.00;54.50;;;;;6.96;68.46;102166.38;4904575;28;45580;-84
2021/11/10 09:46:31;;;;;;;;;71.00;56.75;;;;;7.00;68.55;102176.31;4923789;28;69155;-84
2021/11/10 09:48:58;;;;;;;;;73.75;56.50;;;;;7.03;68.77;102179.19;4911374;28;73782;-85
2021/11/10 09:51:23;;;;;;;;;72.25;58.00;;;;;7.11;68.58;102182.38;4910572;28;45409;-84
2021/11/10 09:53:49;;;;;;;;;73.50;58.00;;;;;7.18;68.24;102188.13;4913843;28;45509;-84
2021/11/10 09:56:14;;;;;;;;;76.75;58.75;;;;;7.28;67.92;102195.94;4911245;28;45533;-84
2021/11/10 09:58:41;;;;;;;;;68.25;54.75;;;;;7.35;68.35;102206.09;4928357;28;67924;-84
2021/11/10 10:01:08;;;;;;;;;70.00;56.75;;;;;7.42;68.03;102204.00;4913011;28;45470;-84
2021/11/10 10:03:35;;;;;;;;;70.75;54.50;;;;;7.48;67.78;102210.63;4909643;28;45658;-84
2021/11/10 10:06:00;;;;;;;;;74.75;55.00;;;;;7.54;68.17;102207.63;4916833;28;45452;-84
2021/11/10 10:08:26;;;;;;;;;66.00;54.75;;;;;7.59;67.90;102195.84;4932970;28;45512;-84
2021/11/10 10:10:51;;;;;;;;;68.75;54.25;;;;;7.66;67.76;102197.25;4921992;28;45467;-84
2021/11/10 10:13:17;;;;;;;;;68.00;52.00;;;;;7.71;68.03;102197.59;4915055;28;45501;-84
2021/11/10 10:15:43;;;;;;;;;60.00;48.00;;;;;7.80;67.73;102207.91;4932824;28;49167;-84
2021/11/10 10:18:19;;;;;;;;;62.00;50.00;;;;;7.89;67.89;102205.09;4914999;28;45620;-85
2021/11/10 10:20:45;;;;;;;;;59.25;51.00;;;;;7.90;67.46;102194.78;4938845;28;45411;-84
2021/11/10 10:23:13;;;;;;;;;64.00;48.25;;;;;7.99;67.52;102209.38;4919879;28;45209;-84
2021/11/10 10:25:46;;;;;;;;;58.25;45.25;;;;;8.07;66.83;102216.13;4917805;28;45699;-85
2021/11/10 10:28:14;;;;;;;;;57.00;47.25;;;;;8.09;67.13;102201.47;4915605;28;46335;-84
2021/11/10 10:31:16;;;;;;;;;52.75;43.75;;;;;8.18;67.05;102206.53;4924394;28;45526;-84
2021/11/10 10:33:45;;;;;;;;;57.50;44.75;;;;;8.21;66.59;102196.31;4889693;28;45585;-84
2021/11/10 10:36:14;;;;;;;;;60.00;45.00;;;;;8.27;66.97;102207.22;4893893;29;45471;-84
2021/11/10 10:38:41;;;;;;;;;57.00;45.25;;;;;8.36;67.06;102187.81;4892195;28;45407;-84
2021/11/10 10:41:08;;;;;;;;;60.25;47.00;;;;;8.38;67.03;102181.00;4894223;28;45461;-84
2021/11/10 10:43:48;;;;;;;;;53.50;43.25;;;;;8.45;66.95;102183.28;4894213;28;45675;-84
2021/11/10 10:46:15;;;;;;;;;51.00;38.50;;;;;8.45;66.99;102164.09;4890295;28;45570;-84
2021/11/10 10:48:40;;;;;;;;;57.00;44.50;;;;;8.52;66.77;102169.00;4893625;29;53898;-84
2021/11/10 10:51:13;;;;;;;;;54.25;42.25;;;;;8.60;66.95;102161.75;4894531;29;45673;-84
2021/11/10 10:53:43;;;;;;;;;55.00;43.50;;;;;8.68;66.78;102160.66;4900833;28;45957;-83
2021/11/10 10:56:30;;;;;;;;;55.75;43.50;;;;;8.77;66.52;102162.13;4895474;28;46402;-85
2021/11/10 10:59:00;;;;;;;;;53.50;43.25;;;;;8.79;66.59;102143.09;4892207;28;46708;-84
2021/11/10 11:01:30;;;;;;;;;54.50;43.25;;;;;8.82;66.67;102148.59;4889630;29;45429;-85
2021/11/10 11:04:09;;;;;;;;;49.50;40.25;;;;;8.86;66.42;102146.19;4899533;28;45726;-84
2021/11/10 11:06:40;;;;;;;;;55.00;42.50;;;;;8.92;66.18;102149.25;4900970;28;45554;-85
2021/11/10 11:09:13;;;;;;;;;56.75;42.00;;;;;8.97;65.96;102140.03;4941782;28;45600;-86
2021/11/10 11:11:44;;;;;;;;;54.50;43.50;;;;;9.01;65.41;102135.97;4913725;28;45385;-84
2021/11/10 11:14:16;;;;;;;;;57.75;46.50;;;;;9.07;65.18;102138.13;4934745;28;45299;-85
2021/11/10 11:16:43;;;;;;;;;50.00;41.25;;;;;9.09;65.65;102139.16;4909767;28;45507;-85
2021/11/10 11:19:18;;;;;;;;;56.25;44.75;;;;;9.13;65.51;102128.09;4923062;28;45523;-83
2021/11/10 11:21:56;;;;;;;;;52.25;41.25;;;;;9.17;65.68;102114.44;4896272;28;45427;-84